createdAt,value
2023-05-14T00:02:33.541Z,7.77
2023-05-14T00:05:36.168Z,8.03
2023-05-14T00:08:38.534Z,10.13
2023-05-14T00:11:41.379Z,9.43
2023-05-14T00:14:43.791Z,7.28
2023-05-14T00:17:46.503Z,6.97
2023-05-14T00:20:49.370Z,7.83
2023-05-14T00:23:51.750Z,7.32
2023-05-14T00:26:54.430Z,6.90
2023-05-14T00:29:56.942Z,6.70
2023-05-14T00:32:59.451Z,7.23
2023-05-14T00:36:01.912Z,8.53
2023-05-14T00:39:04.765Z,7.70
2023-05-14T00:42:07.403Z,6.97
2023-05-14T00:45:10.298Z,6.72
2023-05-14T00:48:13.984Z,6.67
2023-05-14T00:51:17.757Z,5.33
2023-05-14T00:54:21.163Z,6.03
2023-05-14T00:57:23.678Z,6.20
2023-05-14T01:00:27.690Z,6.15
2023-05-14T01:03:31.911Z,7.40
2023-05-14T01:07:00.077Z,5.77
2023-05-14T01:10:15.417Z,5.15
2023-05-14T01:13:56.056Z,6.82
2023-05-14T01:17:01.398Z,6.22
2023-05-14T01:20:04.485Z,7.90
2023-05-14T01:23:06.979Z,5.07
2023-05-14T01:26:09.638Z,6.75
2023-05-14T01:29:22.338Z,5.35
2023-05-14T01:32:26.005Z,5.57
2023-05-14T01:35:30.168Z,6.20
2023-05-14T01:38:34.163Z,5.77
2023-05-14T01:41:39.429Z,4.90
2023-05-14T01:44:42.480Z,6.63
2023-05-14T01:47:45.035Z,6.38
2023-05-14T01:50:47.636Z,6.13
2023-05-14T01:53:50.067Z,6.73
2023-05-14T01:56:52.559Z,5.95
2023-05-14T01:59:55.035Z,4.65
2023-05-14T02:02:57.536Z,6.10
2023-05-14T02:05:59.969Z,5.70
2023-05-14T02:09:04.320Z,5.47
2023-05-14T02:12:08.743Z,5.28
2023-05-14T02:15:11.533Z,7.70
2023-05-14T02:18:14.127Z,6.22
2023-05-14T02:21:16.618Z,5.63
2023-05-14T02:24:19.062Z,7.03
2023-05-14T02:27:21.885Z,6.53
2023-05-14T02:30:24.662Z,6.93
2023-05-14T02:33:28.217Z,5.93
2023-05-14T02:36:30.806Z,6.17
2023-05-14T02:39:33.485Z,7.10
2023-05-14T02:42:35.969Z,6.68
2023-05-14T02:45:38.394Z,6.38
2023-05-14T02:48:41.438Z,5.30
2023-05-14T02:51:44.153Z,9.33
2023-05-14T02:54:46.635Z,6.10
2023-05-14T02:57:49.168Z,5.97
2023-05-14T03:00:51.738Z,5.07
2023-05-14T03:03:54.544Z,5.63
2023-05-14T03:06:57.114Z,5.23
2023-05-14T03:10:00.693Z,5.70
2023-05-14T03:13:03.382Z,6.80
2023-05-14T03:16:06.857Z,6.40
2023-05-14T03:19:09.954Z,4.80
2023-05-14T03:22:12.669Z,5.30
2023-05-14T03:25:15.227Z,5.40
2023-05-14T03:28:18.343Z,4.75
2023-05-14T03:31:20.869Z,5.57
2023-05-14T03:34:23.510Z,4.80
2023-05-14T03:37:25.951Z,5.03
2023-05-14T03:40:28.390Z,4.37
2023-05-14T03:43:30.806Z,5.13
2023-05-14T03:46:33.315Z,5.20
2023-05-14T03:49:35.814Z,4.45
2023-05-14T03:52:38.631Z,4.77
2023-05-14T03:55:41.075Z,5.00
2023-05-14T03:58:46.812Z,7.32
2023-05-14T04:01:50.618Z,6.05
2023-05-14T04:04:53.087Z,8.35
2023-05-14T04:07:56.240Z,4.90
2023-05-14T04:10:58.698Z,7.03
2023-05-14T04:14:01.219Z,6.20
2023-05-14T04:17:04.644Z,5.25
2023-05-14T04:20:07.858Z,4.45
2023-05-14T04:23:10.427Z,5.87
2023-05-14T04:26:12.851Z,4.07
2023-05-14T04:29:15.336Z,5.78
2023-05-14T04:32:18.256Z,5.20
2023-05-14T04:35:23.319Z,5.25
2023-05-14T04:38:27.315Z,5.47
2023-05-14T04:41:29.825Z,5.03
2023-05-14T04:44:34.143Z,4.63
2023-05-14T04:47:36.733Z,6.65
2023-05-14T04:50:39.307Z,5.55
2023-05-14T04:53:41.694Z,4.50
2023-05-14T04:56:44.190Z,4.30
2023-05-14T04:59:46.752Z,5.45
2023-05-14T05:02:49.351Z,5.10
2023-05-14T05:05:52.121Z,4.68
2023-05-14T05:08:55.253Z,4.30
2023-05-14T05:11:57.872Z,4.10
2023-05-14T05:15:00.358Z,5.93
2023-05-14T05:18:02.958Z,8.27
2023-05-14T05:21:06.160Z,6.75
2023-05-14T05:24:08.942Z,6.73
2023-05-14T05:27:11.637Z,6.40
2023-05-14T05:30:14.449Z,6.13
2023-05-14T05:33:16.964Z,6.07
2023-05-14T05:36:20.399Z,5.07
2023-05-14T05:39:22.922Z,4.70
2023-05-14T05:42:26.104Z,5.07
2023-05-14T05:45:28.538Z,4.43
2023-05-14T05:48:31.103Z,5.55
2023-05-14T05:51:33.627Z,6.05
2023-05-14T05:54:36.190Z,4.30
2023-05-14T05:57:38.739Z,5.20
2023-05-14T06:00:41.793Z,7.13
2023-05-14T06:03:45.807Z,4.63
2023-05-14T06:06:50.158Z,6.07
2023-05-14T06:09:52.537Z,5.40
2023-05-14T06:12:54.912Z,7.23
2023-05-14T06:15:57.283Z,4.55
2023-05-14T06:18:59.807Z,4.18
2023-05-14T06:22:02.922Z,4.88
2023-05-14T06:25:05.683Z,8.03
2023-05-14T06:28:08.436Z,5.43
2023-05-14T06:31:10.916Z,5.30
2023-05-14T06:34:13.462Z,5.00
2023-05-14T06:37:15.968Z,6.50
2023-05-14T06:40:18.922Z,6.30
2023-05-14T06:43:21.428Z,6.73
2023-05-14T06:46:23.843Z,5.82
2023-05-14T06:49:26.437Z,7.65
2023-05-14T06:52:28.913Z,6.70
2023-05-14T06:55:31.365Z,4.70
2023-05-14T06:58:33.893Z,5.77
2023-05-14T07:01:36.366Z,5.35
2023-05-14T07:04:38.839Z,6.43
2023-05-14T07:07:41.361Z,7.88
2023-05-14T07:10:43.820Z,5.60
2023-05-14T07:13:46.188Z,7.17
2023-05-14T07:16:48.806Z,6.53
2023-05-14T07:19:51.477Z,5.88
2023-05-14T07:22:54.107Z,4.30
2023-05-14T07:25:56.604Z,5.37
2023-05-14T07:28:59.050Z,4.33
2023-05-14T07:32:02.075Z,4.93
2023-05-14T07:35:04.876Z,7.45
2023-05-14T07:38:07.279Z,6.97
2023-05-14T07:41:11.447Z,5.77
2023-05-14T07:44:13.934Z,6.97
2023-05-14T07:47:16.495Z,6.50
2023-05-14T07:50:19.178Z,5.32
2023-05-14T07:53:23.509Z,6.95
2023-05-14T07:56:26.116Z,5.80
2023-05-14T07:59:28.524Z,3.87
2023-05-14T08:02:31.160Z,5.43
2023-05-14T08:05:33.718Z,7.00
2023-05-14T08:08:36.381Z,5.72
2023-05-14T08:11:39.276Z,6.77
2023-05-14T08:14:41.731Z,6.77
2023-05-14T08:17:44.203Z,4.90
2023-05-14T08:20:47.076Z,4.93
2023-05-14T08:23:49.495Z,6.38
2023-05-14T08:26:52.453Z,5.57
2023-05-14T08:29:54.925Z,5.37
2023-05-14T08:32:58.656Z,4.63
2023-05-14T08:36:01.653Z,4.70
2023-05-14T08:39:04.027Z,5.68
2023-05-14T08:42:08.321Z,4.00
2023-05-14T08:45:34.096Z,4.70
2023-05-14T08:48:37.868Z,5.55
2023-05-14T08:51:40.921Z,8.25
2023-05-14T08:54:44.189Z,4.70
2023-05-14T08:57:46.664Z,6.33
2023-05-14T09:00:49.251Z,4.03
2023-05-14T09:03:53.983Z,3.72
2023-05-14T09:06:56.490Z,5.47
2023-05-14T09:09:59.514Z,4.25
2023-05-14T09:13:02.005Z,5.63
2023-05-14T09:16:04.714Z,7.20
2023-05-14T09:19:07.342Z,4.45
2023-05-14T09:22:12.331Z,5.28
2023-05-14T09:25:15.082Z,4.25
2023-05-14T09:28:19.003Z,5.90
2023-05-14T09:31:22.767Z,14.93
2023-05-14T09:34:32.608Z,5.78
2023-05-14T09:37:36.781Z,4.43
2023-05-14T09:40:39.339Z,7.18
2023-05-14T09:43:42.694Z,5.70
2023-05-14T09:46:48.978Z,4.83
2023-05-14T09:49:52.369Z,7.30
2023-05-14T09:52:56.180Z,5.47
2023-05-14T09:55:58.847Z,5.70
2023-05-14T09:59:01.316Z,5.53
2023-05-14T10:02:05.826Z,5.23
2023-05-14T10:05:09.012Z,8.90
2023-05-14T10:08:24.680Z,7.70
2023-05-14T10:11:32.790Z,5.03
2023-05-14T10:14:47.312Z,6.73
2023-05-14T10:17:56.156Z,7.50
2023-05-14T10:21:06.370Z,7.05
2023-05-14T10:24:10.020Z,8.00
2023-05-14T10:27:12.638Z,6.35
2023-05-14T10:30:15.278Z,6.67
2023-05-14T10:33:18.848Z,5.73
2023-05-14T10:36:22.382Z,8.05
2023-05-14T10:39:40.832Z,6.70
2023-05-14T10:42:43.816Z,7.15
2023-05-14T10:45:46.296Z,4.97
2023-05-14T10:48:49.878Z,5.70
2023-05-14T10:51:53.767Z,6.90
2023-05-14T10:55:03.170Z,7.07
2023-05-14T10:58:06.420Z,7.07
2023-05-14T11:01:12.841Z,6.57
2023-05-14T11:04:19.732Z,6.13
2023-05-14T11:07:25.437Z,7.15
2023-05-14T11:10:30.105Z,5.80
2023-05-14T11:13:34.852Z,6.40
2023-05-14T11:16:37.854Z,8.37
2023-05-14T11:19:43.769Z,5.40
2023-05-14T11:22:48.128Z,6.40
2023-05-14T11:25:52.921Z,5.75
2023-05-14T11:28:55.756Z,7.68
2023-05-14T11:31:58.289Z,8.00
2023-05-14T11:35:00.843Z,8.03
2023-05-14T11:38:03.367Z,6.03
2023-05-14T11:41:06.359Z,6.55
2023-05-14T11:44:10.864Z,6.05
2023-05-14T11:47:13.331Z,7.33
2023-05-14T11:50:16.655Z,8.17
2023-05-14T11:53:20.156Z,8.65
2023-05-14T11:56:22.633Z,6.13
2023-05-14T11:59:26.092Z,7.72
2023-05-14T12:02:29.557Z,7.50
2023-05-14T12:05:32.245Z,8.67
2023-05-14T12:08:34.652Z,7.93
2023-05-14T12:11:37.765Z,7.18
2023-05-14T12:14:42.762Z,7.38
2023-05-14T12:17:54.160Z,9.30
2023-05-14T12:21:01.844Z,5.90
2023-05-14T12:24:04.606Z,7.13
2023-05-14T12:27:09.797Z,7.80
2023-05-14T12:30:21.207Z,8.43
2023-05-14T12:33:26.580Z,8.30
2023-05-14T12:36:29.498Z,8.37
2023-05-14T12:39:33.949Z,6.78
2023-05-14T12:42:36.786Z,6.82
2023-05-14T12:45:39.258Z,6.22
2023-05-14T12:48:41.724Z,6.57
2023-05-14T12:51:44.234Z,7.20
2023-05-14T12:54:46.977Z,5.55
2023-05-14T12:57:49.511Z,8.20
2023-05-14T13:00:52.192Z,7.40
2023-05-14T13:03:55.770Z,6.93
2023-05-14T13:06:58.335Z,7.07
2023-05-14T13:10:00.778Z,6.93
2023-05-14T13:13:03.319Z,9.68
2023-05-14T13:16:06.276Z,6.50
2023-05-14T13:19:08.816Z,7.40
2023-05-14T13:22:11.199Z,10.30
2023-05-14T13:25:13.667Z,9.15
2023-05-14T13:28:16.168Z,8.52
2023-05-14T13:31:18.651Z,9.57
2023-05-14T13:34:21.257Z,10.00
2023-05-14T13:37:25.822Z,10.83
2023-05-14T13:40:28.364Z,10.25
2023-05-14T13:43:35.173Z,9.35
2023-05-14T13:46:37.800Z,7.95
2023-05-14T13:49:40.754Z,8.70
2023-05-14T13:52:43.188Z,8.77
2023-05-14T13:55:46.718Z,9.95
2023-05-14T13:58:51.588Z,8.25
2023-05-14T14:01:54.385Z,10.30
2023-05-14T14:04:56.851Z,9.30
2023-05-14T14:08:04.509Z,10.27
2023-05-14T14:11:22.141Z,9.20
2023-05-14T14:14:24.692Z,11.73
2023-05-14T14:17:27.230Z,10.30
2023-05-14T14:20:31.142Z,9.23
2023-05-14T14:23:33.659Z,8.13
2023-05-14T14:26:36.168Z,9.27
2023-05-14T14:29:38.757Z,11.45
2023-05-14T14:32:48.539Z,8.48
2023-05-14T14:35:51.722Z,7.50
2023-05-14T14:38:54.864Z,7.53
2023-05-14T14:41:57.414Z,7.50
2023-05-14T14:44:59.913Z,7.93
2023-05-14T14:48:34.389Z,7.95
2023-05-14T14:51:36.837Z,7.13
2023-05-14T14:54:39.256Z,13.93
2023-05-14T14:57:41.817Z,7.47
2023-05-14T15:00:45.648Z,8.80
2023-05-14T15:03:48.516Z,8.30
2023-05-14T15:06:51.421Z,7.60
2023-05-14T15:09:53.896Z,6.13
2023-05-14T15:12:59.884Z,7.78
2023-05-14T15:16:02.389Z,7.18
2023-05-14T15:19:04.884Z,6.28
2023-05-14T15:22:07.485Z,5.50
2023-05-14T15:25:10.178Z,5.03
2023-05-14T15:28:12.611Z,5.53
2023-05-14T15:31:15.786Z,5.50
2023-05-14T15:34:18.271Z,6.00
2023-05-14T15:37:20.761Z,8.17
2023-05-14T15:40:23.464Z,6.40
2023-05-14T15:43:26.462Z,5.18
2023-05-14T15:46:29.055Z,5.85
2023-05-14T15:49:31.588Z,5.97
2023-05-14T15:52:35.066Z,4.73
2023-05-14T15:55:37.550Z,5.43
2023-05-14T15:58:40.043Z,4.90
2023-05-14T16:01:42.516Z,5.63
2023-05-14T16:04:49.567Z,6.72
2023-05-14T16:07:52.563Z,6.93
2023-05-14T16:10:55.018Z,5.07
2023-05-14T16:13:58.486Z,4.63
2023-05-14T16:17:01.869Z,4.65
2023-05-14T16:20:05.213Z,6.13
2023-05-14T16:23:09.007Z,5.57
2023-05-14T16:26:11.712Z,6.70
2023-05-14T16:29:14.280Z,4.82
2023-05-14T16:32:16.945Z,5.32
2023-05-14T16:35:19.521Z,3.70
2023-05-14T16:38:22.002Z,3.70
2023-05-14T16:41:24.502Z,3.87
2023-05-14T16:44:26.993Z,6.43
2023-05-14T16:47:29.594Z,5.53
2023-05-14T16:50:32.096Z,3.67
2023-05-14T16:53:34.567Z,4.20
2023-05-14T16:56:37.069Z,4.00
2023-05-14T16:59:39.482Z,3.78
2023-05-14T17:02:42.373Z,4.57
2023-05-14T17:05:44.877Z,3.47
2023-05-14T17:08:47.715Z,3.33
2023-05-14T17:11:50.874Z,3.43
2023-05-14T17:14:53.363Z,3.20
2023-05-14T17:17:56.073Z,2.92
2023-05-14T17:20:58.758Z,3.47
2023-05-14T17:24:01.126Z,2.70
2023-05-14T17:27:03.837Z,3.27
2023-05-14T17:30:07.025Z,3.40
2023-05-14T17:33:09.783Z,3.03
2023-05-14T17:36:12.500Z,2.88
2023-05-14T17:39:15.102Z,3.07
2023-05-14T17:42:18.003Z,4.03
2023-05-14T17:45:21.030Z,4.60
2023-05-14T17:48:24.130Z,3.55
2023-05-14T17:51:26.951Z,5.90
2023-05-14T17:54:29.921Z,5.77
2023-05-14T17:57:32.501Z,4.10
2023-05-14T18:00:35.277Z,4.30
2023-05-14T18:03:38.503Z,4.93
2023-05-14T18:06:41.448Z,4.20
2023-05-14T18:09:44.390Z,4.00
2023-05-14T18:12:47.327Z,5.10
2023-05-14T18:15:54.168Z,6.50
2023-05-14T18:18:57.884Z,5.80
2023-05-14T18:22:00.523Z,4.75
2023-05-14T18:25:04.011Z,6.93
2023-05-14T18:28:09.421Z,5.50
2023-05-14T18:31:12.032Z,6.68
2023-05-14T18:34:14.816Z,6.20
2023-05-14T18:37:17.568Z,5.53
2023-05-14T18:40:20.281Z,5.30
2023-05-14T18:43:22.813Z,5.47
2023-05-14T18:46:25.921Z,5.40
2023-05-14T18:49:28.510Z,4.80
2023-05-14T18:52:32.433Z,4.70
2023-05-14T18:55:37.108Z,5.30
2023-05-14T18:58:39.938Z,4.07
2023-05-14T19:01:42.473Z,4.60
2023-05-14T19:04:52.398Z,5.68
2023-05-14T19:07:56.856Z,5.38
2023-05-14T19:10:59.723Z,4.50
2023-05-14T19:14:03.143Z,5.03
2023-05-14T19:17:06.155Z,7.70
2023-05-14T19:20:09.436Z,5.97
2023-05-14T19:23:12.106Z,5.55
2023-05-14T19:26:16.054Z,5.37
2023-05-14T19:29:18.572Z,5.33
2023-05-14T19:32:21.037Z,5.68
2023-05-14T19:35:23.659Z,4.82
2023-05-14T19:38:26.498Z,3.92
2023-05-14T19:41:29.210Z,4.10
2023-05-14T19:44:32.016Z,3.90
2023-05-14T19:47:34.941Z,3.70
2023-05-14T19:50:37.364Z,3.42
2023-05-14T19:53:40.012Z,3.95
2023-05-14T19:56:42.446Z,4.37
2023-05-14T19:59:45.298Z,4.03
2023-05-14T20:02:48.036Z,3.83
2023-05-14T20:05:51.401Z,3.05
2023-05-14T20:08:55.216Z,3.10
2023-05-14T20:11:57.867Z,4.03
2023-05-14T20:15:00.538Z,3.57
2023-05-14T20:18:03.120Z,3.88
2023-05-14T20:21:05.669Z,4.25
2023-05-14T20:24:08.270Z,2.90
2023-05-14T20:27:11.925Z,4.17
2023-05-14T20:30:14.551Z,3.67
2023-05-14T20:33:17.459Z,8.85
2023-05-14T20:36:20.240Z,3.67
2023-05-14T20:39:22.686Z,5.03
2023-05-14T20:42:25.423Z,2.83
2023-05-14T20:45:27.979Z,3.77
2023-05-14T20:48:30.687Z,3.78
2023-05-14T20:51:33.336Z,3.65
2023-05-14T20:54:35.737Z,4.78
2023-05-14T20:57:38.254Z,3.27
2023-05-14T21:00:40.700Z,4.10
2023-05-14T21:03:44.110Z,6.07
2023-05-14T21:06:46.921Z,3.85
2023-05-14T21:09:52.597Z,4.13
2023-05-14T21:12:55.261Z,4.23
2023-05-14T21:15:57.829Z,5.23
2023-05-14T21:19:00.526Z,4.00
2023-05-14T21:22:03.092Z,4.90
2023-05-14T21:25:05.924Z,3.63
2023-05-14T21:28:09.747Z,5.13
2023-05-14T21:31:12.178Z,6.43
2023-05-14T21:34:14.886Z,4.45
2023-05-14T21:37:17.376Z,4.35
2023-05-14T21:40:19.829Z,4.78
2023-05-14T21:43:22.256Z,5.83
2023-05-14T21:46:25.746Z,4.57
2023-05-14T21:49:28.218Z,4.00
2023-05-14T21:52:30.769Z,4.28
2023-05-14T21:55:33.638Z,5.47
2023-05-14T21:58:36.505Z,5.27
2023-05-14T22:01:55.524Z,3.97
2023-05-14T22:05:01.506Z,3.85
2023-05-14T22:08:04.280Z,4.07
2023-05-14T22:11:06.681Z,3.58
2023-05-14T22:14:09.142Z,4.60
2023-05-14T22:17:12.750Z,4.20
2023-05-14T22:20:15.148Z,3.47
2023-05-14T22:23:17.523Z,3.28
2023-05-14T22:26:21.588Z,4.53
2023-05-14T22:29:23.996Z,3.20
2023-05-14T22:32:26.729Z,3.63
2023-05-14T22:35:29.115Z,4.28
2023-05-14T22:38:31.788Z,4.50
2023-05-14T22:41:34.193Z,6.07
2023-05-14T22:44:37.137Z,5.37
2023-05-14T22:47:39.567Z,6.43
2023-05-14T22:50:42.065Z,4.85
2023-05-14T22:53:44.541Z,5.07
2023-05-14T22:56:47.459Z,5.57
2023-05-14T22:59:49.875Z,5.47
2023-05-14T23:02:52.359Z,6.20
2023-05-14T23:05:54.863Z,5.40
2023-05-14T23:08:57.691Z,5.20
2023-05-14T23:12:00.237Z,6.60
2023-05-14T23:15:02.979Z,6.33
2023-05-14T23:18:05.737Z,6.70
2023-05-14T23:21:08.275Z,8.75
2023-05-14T23:24:10.697Z,6.63
2023-05-14T23:27:13.133Z,6.95
2023-05-14T23:30:15.737Z,6.47
2023-05-14T23:33:18.929Z,6.17
2023-05-14T23:36:21.360Z,6.50
2023-05-14T23:39:23.952Z,7.82
2023-05-14T23:42:26.352Z,6.70
2023-05-14T23:45:29.469Z,7.63
2023-05-14T23:48:32.253Z,7.27
2023-05-14T23:51:34.707Z,7.72
2023-05-14T23:54:37.204Z,7.47
2023-05-14T23:57:40.026Z,5.78
